Time;durP1;ratioP1;P1;durP2;ratioP2;P2;SDS_P1;SDS_P2;PMS_P1;PMS_P2;Temp;Humidity;BMP_temperature;BMP_pressure;BME280_temperature;BME280_humidity;BME280_pressure;Samples;Min_cycle;Max_cycle;Signal;HPM_P1;HPM_P2
2022/07/17 00:02:14;;;;;;;4.03;1.90;;;12.30;99.90;;;;;;5107452;28;20254;-64
2022/07/17 00:04:41;;;;;;;5.10;2.07;;;12.20;99.90;;;;;;5108915;28;20636;-64
2022/07/17 00:07:08;;;;;;;6.97;2.10;;;11.80;99.90;;;;;;5105101;28;20245;-64
2022/07/17 00:09:36;;;;;;;6.83;2.63;;;11.80;99.90;;;;;;5112577;28;20197;-64
2022/07/17 00:12:04;;;;;;;5.53;2.00;;;11.90;99.90;;;;;;5107086;28;20263;-64
2022/07/17 00:14:31;;;;;;;6.57;2.03;;;11.80;99.90;;;;;;5099679;28;20254;-64
2022/07/17 00:16:58;;;;;;;3.27;1.90;;;11.90;99.90;;;;;;5090714;28;20258;-64
2022/07/17 00:19:26;;;;;;;4.50;2.33;;;12.10;99.90;;;;;;5097386;28;20450;-64
2022/07/17 00:21:53;;;;;;;3.20;2.30;;;12.10;99.90;;;;;;5112332;28;20376;-64
2022/07/17 00:24:20;;;;;;;4.57;2.57;;;12.00;99.90;;;;;;5110215;28;20291;-64
2022/07/17 00:26:49;;;;;;;8.30;2.40;;;11.90;99.90;;;;;;5112015;28;20644;-64
2022/07/17 00:29:16;;;;;;;5.97;2.40;;;11.80;99.90;;;;;;5111812;28;20221;-64
2022/07/17 00:31:44;;;;;;;4.03;2.20;;;11.70;99.90;;;;;;5109265;28;20196;-65
2022/07/17 00:34:11;;;;;;;6.33;2.03;;;11.60;99.90;;;;;;5111979;28;20240;-64
2022/07/17 00:36:39;;;;;;;5.40;2.07;;;11.40;99.90;;;;;;5103878;28;20720;-65
2022/07/17 00:39:06;;;;;;;4.73;2.20;;;11.60;99.90;;;;;;5111441;28;20245;-65
2022/07/17 00:41:33;;;;;;;9.67;2.20;;;11.80;99.90;;;;;;5111712;28;20233;-64
2022/07/17 00:44:10;;;;;;;6.07;2.53;;;11.70;99.90;;;;;;5104456;28;20682;-65
2022/07/17 00:46:37;;;;;;;6.70;2.60;;;11.50;99.90;;;;;;5110716;28;20200;-65
2022/07/17 00:49:05;;;;;;;5.40;2.30;;;11.70;99.90;;;;;;5111961;28;20647;-64
2022/07/17 00:51:32;;;;;;;7.33;2.67;;;11.80;99.90;;;;;;5109546;28;20295;-65
2022/07/17 00:54:00;;;;;;;3.37;2.17;;;11.80;99.90;;;;;;5110046;28;20286;-64
2022/07/17 00:56:29;;;;;;;5.60;2.40;;;11.60;99.90;;;;;;5109602;28;20193;-65
2022/07/17 00:58:57;;;;;;;4.67;2.30;;;11.70;99.90;;;;;;5111718;28;20193;-65
2022/07/17 01:01:25;;;;;;;7.77;2.77;;;11.50;99.90;;;;;;5097903;28;20200;-65
2022/07/17 01:03:52;;;;;;;6.73;2.87;;;11.50;99.90;;;;;;5111085;28;20197;-65
2022/07/17 01:06:19;;;;;;;4.47;2.43;;;11.60;99.90;;;;;;5107446;28;20240;-65
2022/07/17 01:08:46;;;;;;;6.53;2.07;;;11.50;99.90;;;;;;5111729;28;20770;-65
2022/07/17 01:11:13;;;;;;;6.07;2.37;;;11.50;99.90;;;;;;5110918;28;20230;-65
2022/07/17 01:13:40;;;;;;;5.83;2.20;;;11.40;99.90;;;;;;5110873;28;20201;-65
2022/07/17 01:16:08;;;;;;;12.53;2.83;;;11.50;99.90;;;;;;5092018;28;20224;-67
2022/07/17 01:18:37;;;;;;;4.27;2.13;;;11.60;99.90;;;;;;5109258;28;20196;-65
2022/07/17 01:21:06;;;;;;;6.17;2.10;;;11.70;99.90;;;;;;5105099;28;20771;-64
2022/07/17 01:23:33;;;;;;;6.73;2.30;;;11.80;99.90;;;;;;5109899;28;20201;-65
2022/07/17 01:26:00;;;;;;;6.20;2.00;;;11.80;99.90;;;;;;5110321;28;20713;-65
2022/07/17 01:28:27;;;;;;;5.83;2.20;;;11.80;99.90;;;;;;5110898;28;20630;-65
2022/07/17 01:30:54;;;;;;;5.00;2.33;;;11.80;99.90;;;;;;5109554;28;20242;-65
2022/07/17 01:33:21;;;;;;;4.00;2.43;;;11.70;99.90;;;;;;5109874;28;20188;-65
2022/07/17 01:35:48;;;;;;;4.63;2.07;;;11.70;99.90;;;;;;5104024;28;20262;-65
2022/07/17 01:38:17;;;;;;;7.43;2.83;;;11.60;99.90;;;;;;5109887;28;20205;-65
2022/07/17 01:40:44;;;;;;;7.53;2.57;;;11.50;99.90;;;;;;5109145;28;20193;-65
2022/07/17 01:43:11;;;;;;;7.33;2.13;;;11.50;99.90;;;;;;5110279;28;20197;-65
2022/07/17 01:45:38;;;;;;;4.23;2.00;;;11.40;99.90;;;;;;5090234;28;20229;-65
2022/07/17 01:48:05;;;;;;;5.20;2.13;;;11.40;99.90;;;;;;5096763;28;20266;-65
2022/07/17 01:50:32;;;;;;;8.07;2.20;;;11.50;99.90;;;;;;5097090;28;20206;-65
2022/07/17 01:52:59;;;;;;;8.40;2.50;;;11.50;99.90;;;;;;5096184;28;20196;-65
2022/07/17 01:55:27;;;;;;;5.83;2.00;;;11.40;99.90;;;;;;5110610;28;20200;-65
2022/07/17 01:57:54;;;;;;;8.13;2.47;;;11.60;99.90;;;;;;5105903;28;20278;-65
2022/07/17 02:00:24;;;;;;;4.80;2.20;;;11.50;99.90;;;;;;5092600;28;20263;-65
2022/07/17 02:02:51;;;;;;;5.70;2.80;;;11.50;99.90;;;;;;5110178;28;20296;-65
2022/07/17 02:05:18;;;;;;;8.83;2.20;;;11.50;99.90;;;;;;5107091;28;20608;-65
2022/07/17 02:07:45;;;;;;;6.00;1.80;;;11.50;99.90;;;;;;5114531;28;20666;-65
2022/07/17 02:10:13;;;;;;;4.00;2.17;;;11.40;99.90;;;;;;5115282;28;20197;-65
2022/07/17 02:12:42;;;;;;;5.90;2.40;;;11.20;99.90;;;;;;5114750;28;20197;-65
2022/07/17 02:15:10;;;;;;;6.07;2.20;;;11.10;99.90;;;;;;5103093;28;20397;-65
2022/07/17 02:17:37;;;;;;;6.30;2.40;;;11.00;99.90;;;;;;5113973;28;20564;-65
2022/07/17 02:20:05;;;;;;;5.30;1.90;;;10.90;99.90;;;;;;5112015;28;20255;-65
2022/07/17 02:22:32;;;;;;;5.17;2.40;;;10.90;99.90;;;;;;5112279;28;20259;-65
2022/07/17 02:24:58;;;;;;;5.83;2.27;;;10.90;99.90;;;;;;5092824;28;20233;-65
2022/07/17 02:27:25;;;;;;;7.33;2.37;;;10.80;99.90;;;;;;5111209;28;20201;-65
2022/07/17 02:29:54;;;;;;;8.50;2.20;;;10.80;99.90;;;;;;5107954;28;20249;-65
2022/07/17 02:32:21;;;;;;;9.13;2.10;;;10.90;99.90;;;;;;5113141;28;20301;-65
2022/07/17 02:34:48;;;;;;;5.57;2.67;;;10.90;99.90;;;;;;5112696;28;20201;-65
2022/07/17 02:37:15;;;;;;;4.73;1.93;;;10.70;99.90;;;;;;5113398;28;20287;-65
2022/07/17 02:39:52;;;;;;;4.83;2.27;;;10.80;99.90;;;;;;5111874;28;20564;-65
2022/07/17 02:42:20;;;;;;;8.03;2.10;;;10.90;99.90;;;;;;5094260;28;20206;-65
2022/07/17 02:44:47;;;;;;;6.60;2.20;;;10.90;99.90;;;;;;5104400;28;20203;-65
2022/07/17 02:47:22;;;;;;;6.70;2.37;;;10.90;99.90;;;;;;5113661;28;20197;-65
2022/07/17 02:49:49;;;;;;;5.43;2.30;;;10.90;99.90;;;;;;5100244;28;20696;-65
2022/07/17 02:52:16;;;;;;;4.43;2.00;;;10.90;99.90;;;;;;5096282;28;20193;-65
2022/07/17 02:54:43;;;;;;;5.20;2.00;;;10.80;99.90;;;;;;5113043;28;20618;-65
2022/07/17 02:57:10;;;;;;;3.20;2.10;;;10.80;99.90;;;;;;5100404;28;20235;-65
2022/07/17 02:59:37;;;;;;;4.43;2.67;;;10.80;99.90;;;;;;5113816;28;20201;-65
2022/07/17 03:02:05;;;;;;;8.30;2.37;;;10.70;99.90;;;;;;5112613;27;20613;-65
2022/07/17 03:04:33;;;;;;;4.27;2.33;;;10.80;99.90;;;;;;5109430;28;20229;-65
2022/07/17 03:07:00;;;;;;;4.03;2.30;;;10.80;99.90;;;;;;5113446;28;20738;-65
2022/07/17 03:09:27;;;;;;;6.70;2.23;;;10.80;99.90;;;;;;5112112;28;20225;-65
2022/07/17 03:11:54;;;;;;;3.53;2.10;;;10.80;99.90;;;;;;5109624;28;20193;-65
2022/07/17 03:14:21;;;;;;;4.77;2.13;;;10.80;99.90;;;;;;5092024;28;20278;-65
2022/07/17 03:16:48;;;;;;;7.87;2.33;;;10.80;99.90;;;;;;5109240;28;20197;-65
2022/07/17 03:19:15;;;;;;;6.70;2.40;;;10.70;99.90;;;;;;5099184;28;20287;-65
2022/07/17 03:21:43;;;;;;;3.63;2.10;;;10.70;99.90;;;;;;5098532;28;20197;-65
2022/07/17 03:24:11;;;;;;;6.30;2.17;;;10.70;99.90;;;;;;5100222;28;20270;-65
2022/07/17 03:26:37;;;;;;;4.33;2.33;;;10.80;99.90;;;;;;5111476;28;20480;-65
2022/07/17 03:29:04;;;;;;;4.43;2.33;;;10.50;99.90;;;;;;5111406;27;20630;-65
2022/07/17 03:31:31;;;;;;;4.90;2.40;;;10.60;99.90;;;;;;5111502;28;20250;-64
2022/07/17 03:33:58;;;;;;;6.37;2.27;;;10.70;99.90;;;;;;5112668;28;20197;-65
2022/07/17 03:36:25;;;;;;;7.63;2.30;;;10.60;99.90;;;;;;5098138;28;20244;-65
2022/07/17 03:38:54;;;;;;;6.47;2.37;;;10.70;99.90;;;;;;5103955;28;20258;-65
2022/07/17 03:41:21;;;;;;;6.27;2.10;;;10.70;99.90;;;;;;5111788;28;20294;-65
2022/07/17 03:43:47;;;;;;;4.03;2.13;;;10.70;99.90;;;;;;5108115;28;20202;-65
2022/07/17 03:46:14;;;;;;;6.23;2.37;;;10.70;99.90;;;;;;5094095;28;20452;-65
2022/07/17 03:48:41;;;;;;;6.90;2.00;;;10.80;99.90;;;;;;5112067;28;20278;-65
2022/07/17 03:51:08;;;;;;;7.30;2.07;;;10.70;99.90;;;;;;5100116;28;20592;-65
2022/07/17 03:53:35;;;;;;;3.07;1.97;;;10.90;99.90;;;;;;5110271;28;20629;-65
2022/07/17 03:56:05;;;;;;;6.27;2.30;;;10.90;99.90;;;;;;5113034;28;20560;-65
2022/07/17 03:58:32;;;;;;;4.37;2.30;;;10.90;99.90;;;;;;5102187;28;20210;-65
2022/07/17 04:01:00;;;;;;;4.70;2.27;;;10.90;99.90;;;;;;5091189;28;20251;-65
2022/07/17 04:03:27;;;;;;;5.87;2.00;;;11.10;99.90;;;;;;5111870;28;20238;-65
2022/07/17 04:05:54;;;;;;;7.63;2.27;;;11.10;99.90;;;;;;5105453;27;20615;-65
2022/07/17 04:08:21;;;;;;;3.87;2.43;;;11.30;99.90;;;;;;5110903;28;20201;-64
2022/07/17 04:10:48;;;;;;;6.57;2.37;;;11.40;99.90;;;;;;5111968;28;20246;-64
2022/07/17 04:13:17;;;;;;;5.53;2.30;;;12.00;99.90;;;;;;5112769;28;20201;-65
2022/07/17 04:15:52;;;;;;;7.27;2.23;;;11.90;99.90;;;;;;5111324;28;20665;-65
2022/07/17 04:18:21;;;;;;;4.10;1.90;;;11.70;99.90;;;;;;5112086;28;20279;-65
2022/07/17 04:20:48;;;;;;;3.57;2.27;;;11.40;99.90;;;;;;5111357;28;20203;-65
2022/07/17 04:23:15;;;;;;;5.50;2.37;;;11.40;99.90;;;;;;5112378;28;20292;-65
2022/07/17 04:25:43;;;;;;;6.60;2.37;;;11.60;99.90;;;;;;5107281;28;20233;-65
2022/07/17 04:28:10;;;;;;;9.50;2.53;;;11.80;99.90;;;;;;5102850;28;20229;-65
2022/07/17 04:30:39;;;;;;;2.57;1.90;;;12.30;99.90;;;;;;5092076;28;20229;-65
2022/07/17 04:33:06;;;;;;;5.73;1.97;;;12.90;99.90;;;;;;5092949;28;20216;-65
2022/07/17 04:35:33;;;;;;;6.07;1.83;;;13.00;99.90;;;;;;5112104;28;20262;-65
2022/07/17 04:38:00;;;;;;;5.03;1.93;;;12.70;99.90;;;;;;5112190;28;20554;-65
2022/07/17 04:40:27;;;;;;;7.50;3.57;;;12.70;99.90;;;;;;5112145;28;20667;-65
2022/07/17 04:42:54;;;;;;;5.77;2.97;;;12.60;99.90;;;;;;5098871;28;20229;-65
2022/07/17 04:45:21;;;;;;;5.50;1.83;;;12.60;99.90;;;;;;5107501;28;20677;-65
2022/07/17 04:47:50;;;;;;;3.90;1.90;;;12.20;99.90;;;;;;5110917;28;20739;-65
2022/07/17 04:50:17;;;;;;;5.93;2.50;;;12.60;99.90;;;;;;5108566;28;20232;-65
2022/07/17 04:52:44;;;;;;;12.10;4.70;;;12.80;99.90;;;;;;5109308;28;20201;-65
2022/07/17 04:55:11;;;;;;;5.40;2.00;;;12.80;99.90;;;;;;5106746;28;20228;-65
2022/07/17 04:57:38;;;;;;;3.43;1.93;;;12.70;99.90;;;;;;5101894;28;20214;-65
2022/07/17 05:00:07;;;;;;;6.33;2.10;;;12.70;99.90;;;;;;5101983;28;20280;-65
2022/07/17 05:02:34;;;;;;;7.77;1.80;;;12.80;99.90;;;;;;5102384;28;20236;-65
2022/07/17 05:05:04;;;;;;;4.63;2.17;;;12.80;99.90;;;;;;5102237;28;20647;-66
2022/07/17 05:07:31;;;;;;;4.30;1.80;;;12.90;99.90;;;;;;5105188;28;20646;-65
2022/07/17 05:09:58;;;;;;;6.20;1.90;;;13.00;99.90;;;;;;5101640;28;20898;-65
2022/07/17 05:12:25;;;;;;;4.57;2.03;;;13.00;99.90;;;;;;5097742;28;20286;-65
2022/07/17 05:14:52;;;;;;;7.83;2.10;;;12.80;99.90;;;;;;5106242;28;20523;-65
2022/07/17 05:17:19;;;;;;;3.03;1.83;;;12.70;99.90;;;;;;5106289;28;20239;-65
2022/07/17 05:19:46;;;;;;;3.67;1.97;;;12.60;99.90;;;;;;5103291;28;20719;-65
2022/07/17 05:22:15;;;;;;;3.17;2.17;;;12.80;99.90;;;;;;5094086;28;20202;-65
2022/07/17 05:24:42;;;;;;;5.27;1.70;;;12.80;99.90;;;;;;5104327;28;20197;-65
2022/07/17 05:27:09;;;;;;;3.77;2.20;;;12.90;99.90;;;;;;5108318;28;20205;-65
2022/07/17 05:29:36;;;;;;;7.27;2.27;;;13.20;99.90;;;;;;5101421;28;20768;-65
2022/07/17 05:32:03;;;;;;;5.33;2.07;;;13.10;99.90;;;;;;5094590;28;20193;-65
2022/07/17 05:34:30;;;;;;;3.97;2.00;;;13.10;99.90;;;;;;5105976;28;20274;-65
2022/07/17 05:36:57;;;;;;;4.60;2.23;;;13.20;99.90;;;;;;5104054;28;20605;-65
2022/07/17 05:39:25;;;;;;;3.37;1.73;;;13.40;99.90;;;;;;5105573;28;20782;-65
2022/07/17 05:41:52;;;;;;;5.93;2.27;;;13.50;99.90;;;;;;5108239;28;20249;-65
2022/07/17 05:44:19;;;;;;;4.77;2.10;;;13.30;99.90;;;;;;5103249;28;20245;-65
2022/07/17 05:46:46;;;;;;;6.67;2.27;;;13.30;99.90;;;;;;5112141;28;20239;-65
2022/07/17 05:49:13;;;;;;;13.43;6.33;;;13.20;99.90;;;;;;5107832;28;20220;-65
2022/07/17 05:51:41;;;;;;;12.60;6.87;;;13.30;99.90;;;;;;5103654;28;20229;-65
2022/07/17 05:54:08;;;;;;;5.27;2.27;;;13.40;99.90;;;;;;5102832;28;20201;-65
2022/07/17 05:56:36;;;;;;;6.30;2.20;;;13.30;99.90;;;;;;5103091;28;20253;-66
2022/07/17 05:59:03;;;;;;;4.00;1.97;;;13.40;99.90;;;;;;5106481;28;20201;-65
2022/07/17 06:01:30;;;;;;;4.07;2.00;;;13.40;99.90;;;;;;5096486;28;20193;-66
2022/07/17 06:03:57;;;;;;;6.40;2.13;;;13.50;99.90;;;;;;5101980;28;20597;-65
2022/07/17 06:06:24;;;;;;;4.40;2.10;;;13.60;99.90;;;;;;5109868;28;20198;-66
2022/07/17 06:08:51;;;;;;;5.23;1.80;;;13.50;99.90;;;;;;5108689;28;20250;-65
2022/07/17 06:11:18;;;;;;;2.20;1.90;;;13.70;99.90;;;;;;5109028;28;20228;-66
2022/07/17 06:13:47;;;;;;;3.77;1.90;;;13.80;99.90;;;;;;5106309;28;20777;-65
2022/07/17 06:16:14;;;;;;;5.93;2.10;;;13.70;99.90;;;;;;5104845;28;20270;-66
2022/07/17 06:18:41;;;;;;;4.97;2.07;;;13.90;99.90;;;;;;5103020;28;20196;-66
2022/07/17 06:21:08;;;;;;;6.93;2.20;;;14.10;99.90;;;;;;5107783;28;20197;-65
2022/07/17 06:23:35;;;;;;;6.67;2.30;;;14.30;99.90;;;;;;5102277;28;20634;-65
2022/07/17 06:26:02;;;;;;;4.87;1.80;;;14.40;99.90;;;;;;5099588;28;20202;-65
2022/07/17 06:28:29;;;;;;;8.07;2.00;;;14.50;99.90;;;;;;5108408;27;20250;-66
2022/07/17 06:30:58;;;;;;;5.53;1.87;;;14.60;99.90;;;;;;5104826;28;20277;-66
2022/07/17 06:33:25;;;;;;;5.10;1.70;;;14.60;99.90;;;;;;5110764;28;20211;-65
2022/07/17 06:35:52;;;;;;;8.90;2.60;;;14.70;99.90;;;;;;5099912;28;20202;-65
2022/07/17 06:38:19;;;;;;;5.60;1.90;;;14.70;99.90;;;;;;5105105;28;20194;-66
2022/07/17 06:40:46;;;;;;;5.70;1.60;;;14.80;99.90;;;;;;5102367;28;20194;-66
2022/07/17 06:43:13;;;;;;;5.77;1.73;;;15.10;99.90;;;;;;5101378;28;20201;-66
2022/07/17 06:45:40;;;;;;;5.27;2.10;;;15.40;99.90;;;;;;5110818;28;20196;-65
2022/07/17 06:48:08;;;;;;;7.43;1.90;;;15.30;99.90;;;;;;5100316;28;20197;-66
2022/07/17 06:50:36;;;;;;;5.80;1.87;;;15.40;99.90;;;;;;5110956;28;20225;-66
2022/07/17 06:53:03;;;;;;;5.63;1.90;;;15.40;99.90;;;;;;5112231;28;20670;-66
2022/07/17 06:55:30;;;;;;;5.37;1.50;;;15.50;99.90;;;;;;5113053;28;20223;-66
2022/07/17 06:57:57;;;;;;;5.67;1.43;;;15.50;99.90;;;;;;5113613;27;20693;-66
2022/07/17 07:00:24;;;;;;;5.17;1.73;;;15.60;99.90;;;;;;5114475;28;20266;-66
2022/07/17 07:02:51;;;;;;;4.30;1.40;;;15.80;99.90;;;;;;5108702;28;20293;-66
2022/07/17 07:05:19;;;;;;;6.93;1.63;;;16.00;99.90;;;;;;5099447;28;20586;-66
2022/07/17 07:07:46;;;;;;;6.60;1.87;;;16.10;99.90;;;;;;5113292;28;20236;-66
2022/07/17 07:10:13;;;;;;;6.47;1.50;;;16.10;99.90;;;;;;5112625;27;20690;-66
2022/07/17 07:12:40;;;;;;;4.53;1.57;;;16.20;98.90;;;;;;5113883;27;20196;-66
2022/07/17 07:15:09;;;;;;;5.93;1.70;;;16.10;97.00;;;;;;5113177;28;20201;-65
2022/07/17 07:17:36;;;;;;;4.43;1.90;;;15.70;95.00;;;;;;5108595;28;20533;-66
2022/07/17 07:20:04;;;;;;;5.77;1.60;;;15.90;96.40;;;;;;5111073;28;20280;-66
2022/07/17 07:22:33;;;;;;;4.73;2.33;;;15.90;97.10;;;;;;5103958;28;20213;-66
2022/07/17 07:25:00;;;;;;;7.10;2.33;;;16.10;95.80;;;;;;5094964;28;20622;-67
2022/07/17 07:27:27;;;;;;;4.87;1.40;;;16.10;96.20;;;;;;5093754;28;20230;-66
2022/07/17 07:29:54;;;;;;;8.53;1.93;;;16.20;93.90;;;;;;5110262;28;20566;-66
2022/07/17 07:32:21;;;;;;;5.10;1.53;;;16.20;93.30;;;;;;5092635;28;20636;-66
2022/07/17 07:34:48;;;;;;;7.47;1.80;;;16.00;91.90;;;;;;5092399;28;20716;-66
2022/07/17 07:37:15;;;;;;;4.43;1.80;;;16.20;92.20;;;;;;5092611;28;20205;-66
2022/07/17 07:39:43;;;;;;;5.03;1.30;;;16.30;88.80;;;;;;5092396;28;20241;-66
2022/07/17 07:42:11;;;;;;;6.10;2.03;;;16.30;79.00;;;;;;5093004;28;20241;-66
2022/07/17 07:44:38;;;;;;;4.28;1.67;;;16.20;82.30;;;;;;5092335;28;20243;-66
2022/07/17 07:47:05;;;;;;;4.20;1.27;;;16.30;77.70;;;;;;5093619;28;20289;-66
2022/07/17 07:49:32;;;;;;;3.72;1.70;;;16.30;78.80;;;;;;5099858;28;20607;-66
2022/07/17 07:51:59;;;;;;;3.75;1.33;;;16.60;81.70;;;;;;5092840;28;20288;-65
2022/07/17 07:54:26;;;;;;;7.47;1.70;;;16.60;78.20;;;;;;5091530;28;20293;-65
2022/07/17 07:56:54;;;;;;;7.17;2.03;;;16.60;79.90;;;;;;5092901;28;20206;-65
2022/07/17 07:59:21;;;;;;;2.45;1.25;;;16.40;78.60;;;;;;5092377;28;20202;-65
2022/07/17 08:01:48;;;;;;;6.77;1.87;;;16.70;74.10;;;;;;5091739;28;20197;-64
2022/07/17 08:04:15;;;;;;;6.10;2.58;;;16.80;73.50;;;;;;5091830;28;20233;-66
2022/07/17 08:06:43;;;;;;;5.15;1.65;;;17.00;70.80;;;;;;5092409;28;20555;-65
2022/07/17 08:09:10;;;;;;;3.00;1.38;;;16.90;72.10;;;;;;5091740;28;20260;-65
2022/07/17 08:11:37;;;;;;;3.28;1.40;;;17.00;68.70;;;;;;5092299;28;20618;-65
2022/07/17 08:14:05;;;;;;;5.38;1.48;;;17.00;67.80;;;;;;5092245;28;20229;-65
2022/07/17 08:16:32;;;;;;;7.88;1.25;;;17.00;66.10;;;;;;5091983;28;20259;-65
2022/07/17 08:18:59;;;;;;;4.40;1.58;;;17.40;66.10;;;;;;5092350;28;20197;-65
2022/07/17 08:21:26;;;;;;;5.13;1.48;;;17.60;61.40;;;;;;5091578;28;20262;-65
2022/07/17 08:23:53;;;;;;;5.72;1.65;;;17.60;62.20;;;;;;5090953;28;20213;-65
2022/07/17 08:26:20;;;;;;;3.65;1.33;;;17.50;59.70;;;;;;5090747;28;20597;-65
2022/07/17 08:28:47;;;;;;;6.20;1.88;;;17.40;60.20;;;;;;5104132;28;20629;-68
2022/07/17 08:31:15;;;;;;;2.17;1.33;;;17.60;57.50;;;;;;5110392;28;20225;-66
2022/07/17 08:33:42;;;;;;;3.28;1.35;;;17.70;57.40;;;;;;5112530;28;20309;-67
2022/07/17 08:36:09;;;;;;;8.30;1.80;;;18.00;57.80;;;;;;5112452;28;20343;-67
2022/07/17 08:38:36;;;;;;;3.13;1.33;;;17.90;58.20;;;;;;5110749;28;20200;-67
2022/07/17 08:41:04;;;;;;;1.65;1.20;;;17.90;55.80;;;;;;5111138;28;20238;-67
2022/07/17 08:43:31;;;;;;;4.60;1.58;;;17.90;54.40;;;;;;5109462;28;20209;-67
2022/07/17 08:45:59;;;;;;;6.20;1.33;;;18.30;55.20;;;;;;5092179;28;20237;-67
2022/07/17 08:48:30;;;;;;;3.78;1.38;;;18.10;53.40;;;;;;5090986;28;20201;-67
2022/07/17 08:51:00;;;;;;;5.03;1.55;;;18.40;53.70;;;;;;5090986;28;20224;-67
2022/07/17 08:53:27;;;;;;;3.38;1.27;;;18.00;53.20;;;;;;5089617;28;20247;-67
2022/07/17 08:55:54;;;;;;;5.13;1.75;;;18.50;53.60;;;;;;5091821;28;20208;-67
2022/07/17 08:58:21;;;;;;;3.00;1.33;;;18.80;48.90;;;;;;5096568;28;20193;-67
2022/07/17 09:00:49;;;;;;;4.65;1.55;;;19.30;45.80;;;;;;5100783;28;20209;-67
2022/07/17 09:03:17;;;;;;;4.80;1.60;;;19.20;47.70;;;;;;5099057;28;20193;-67
2022/07/17 09:05:46;;;;;;;2.63;1.30;;;19.40;40.80;;;;;;5106411;28;20681;-67
2022/07/17 09:08:19;;;;;;;6.30;1.60;;;19.80;41.90;;;;;;5103807;28;20229;-67
2022/07/17 09:10:50;;;;;;;3.35;1.58;;;20.40;37.00;;;;;;5102673;28;20221;-67
2022/07/17 09:13:20;;;;;;;1.60;1.10;;;20.60;37.40;;;;;;5098901;28;20205;-67
2022/07/17 09:15:47;;;;;;;5.45;1.42;;;20.60;29.60;;;;;;5107758;28;20661;-67
2022/07/17 09:18:15;;;;;;;3.92;1.88;;;20.70;29.20;;;;;;5109689;28;20258;-67
2022/07/17 09:20:48;;;;;;;3.53;1.25;;;21.00;29.80;;;;;;5099646;28;20206;-67
2022/07/17 09:23:15;;;;;;;3.47;1.23;;;20.90;28.10;;;;;;5097370;28;20254;-67
2022/07/17 09:25:45;;;;;;;3.53;1.20;;;21.20;28.90;;;;;;5097708;28;20238;-67
2022/07/17 09:28:14;;;;;;;4.45;1.50;;;21.20;28.30;;;;;;5103635;28;20197;-67
2022/07/17 09:30:44;;;;;;;4.18;1.80;;;20.90;32.10;;;;;;5098216;28;20699;-67
2022/07/17 09:33:14;;;;;;;2.40;1.17;;;21.40;27.70;;;;;;5100127;28;20207;-68
2022/07/17 09:35:52;;;;;;;4.85;1.77;;;21.10;27.40;;;;;;5098946;28;20651;-67
2022/07/17 09:38:30;;;;;;;10.05;5.72;;;21.20;26.60;;;;;;5087159;28;20255;-68
2022/07/17 09:41:13;;;;;;;4.95;3.03;;;22.20;23.90;;;;;;5099906;28;20205;-67
2022/07/17 09:43:44;;;;;;;4.30;1.35;;;22.00;20.80;;;;;;5108029;28;20201;-68
2022/07/17 09:46:14;;;;;;;3.88;1.40;;;22.10;23.20;;;;;;5098844;28;20209;-68
2022/07/17 09:48:47;;;;;;;6.18;1.50;;;21.70;20.60;;;;;;5104013;28;20203;-67
2022/07/17 09:51:18;;;;;;;5.28;1.27;;;21.90;23.60;;;;;;5086888;28;20222;-67
2022/07/17 09:53:47;;;;;;;4.38;1.40;;;22.50;23.20;;;;;;5087316;28;20209;-67
2022/07/17 09:56:17;;;;;;;2.90;1.20;;;22.20;22.10;;;;;;5087137;28;20647;-67
2022/07/17 09:58:47;;;;;;;3.00;1.75;;;22.50;23.80;;;;;;5088300;28;20206;-68
2022/07/17 10:01:15;;;;;;;2.42;0.98;;;23.40;20.20;;;;;;5088322;28;20288;-67
2022/07/17 10:03:43;;;;;;;3.55;1.40;;;22.50;20.20;;;;;;5087975;28;20216;-68
2022/07/17 10:06:11;;;;;;;2.72;1.40;;;22.80;21.50;;;;;;5088239;28;20206;-67
2022/07/17 10:08:40;;;;;;;3.22;1.30;;;22.00;23.90;;;;;;5087462;28;20205;-67
2022/07/17 10:11:08;;;;;;;4.15;1.50;;;22.20;25.40;;;;;;5087524;28;20206;-68
2022/07/17 10:13:37;;;;;;;2.72;1.15;;;22.80;20.90;;;;;;5088613;28;20213;-68
2022/07/17 10:16:05;;;;;;;2.88;1.35;;;22.30;22.20;;;;;;5086977;28;20609;-68
2022/07/17 10:18:37;;;;;;;2.30;1.13;;;22.90;20.40;;;;;;5087685;28;20721;-68
2022/07/17 10:21:15;;;;;;;5.63;1.63;;;23.10;19.90;;;;;;5087607;28;20203;-68
2022/07/17 10:23:48;;;;;;;2.83;1.98;;;23.40;19.60;;;;;;5087788;28;20209;-68
2022/07/17 10:26:15;;;;;;;5.63;1.83;;;23.20;20.80;;;;;;5087811;28;20628;-68
2022/07/17 10:28:44;;;;;;;6.07;2.42;;;22.80;19.70;;;;;;5102630;28;20258;-67
2022/07/17 10:31:22;;;;;;;4.20;1.95;;;22.50;21.40;;;;;;5106085;28;20697;-68
2022/07/17 10:33:56;;;;;;;4.43;1.52;;;23.10;20.10;;;;;;5089623;28;20293;-68
2022/07/17 10:36:33;;;;;;;4.70;1.40;;;22.40;18.20;;;;;;5092199;28;20587;-68
2022/07/17 10:39:11;;;;;;;4.35;1.77;;;22.30;18.60;;;;;;5090503;28;20542;-67
2022/07/17 10:41:39;;;;;;;3.63;1.38;;;22.50;16.00;;;;;;5091578;28;20279;-67
2022/07/17 10:44:05;;;;;;;2.05;1.48;;;22.60;19.80;;;;;;5091405;28;20248;-67
2022/07/17 10:46:32;;;;;;;4.45;1.25;;;22.10;22.20;;;;;;5091698;28;20206;-68
2022/07/17 10:49:03;;;;;;;3.55;1.50;;;22.60;22.60;;;;;;5091882;28;20473;-67
2022/07/17 10:51:31;;;;;;;3.55;1.25;;;23.40;18.70;;;;;;5090808;28;20615;-67
2022/07/17 10:53:58;;;;;;;2.97;1.20;;;22.70;16.40;;;;;;5091426;28;20202;-68
2022/07/17 10:56:27;;;;;;;5.53;1.73;;;23.50;17.50;;;;;;5090395;28;20205;-67
2022/07/17 10:59:02;;;;;;;3.08;2.25;;;23.50;14.50;;;;;;5090663;28;20269;-68
2022/07/17 11:01:29;;;;;;;5.07;1.75;;;24.00;16.40;;;;;;5089558;28;20204;-68
2022/07/17 11:03:58;;;;;;;2.83;1.33;;;24.30;14.90;;;;;;5090604;28;20752;-68
2022/07/17 11:06:27;;;;;;;3.63;1.67;;;23.30;17.50;;;;;;5091233;28;20206;-67
2022/07/17 11:08:57;;;;;;;2.75;1.48;;;22.90;16.60;;;;;;5091196;28;20233;-67
2022/07/17 11:11:38;;;;;;;3.15;1.35;;;22.80;15.80;;;;;;5090071;28;20225;-78
2022/07/17 11:14:11;;;;;;;4.88;1.33;;;22.70;17.70;;;;;;5093808;28;20887;-78
2022/07/17 11:16:39;;;;;;;5.75;1.63;;;23.00;17.30;;;;;;5102308;28;20289;-77
2022/07/17 11:19:06;;;;;;;4.15;1.40;;;23.70;16.80;;;;;;5101082;27;20266;-77
2022/07/17 11:21:35;;;;;;;2.30;1.30;;;23.40;15.20;;;;;;5106094;27;20301;-73
2022/07/17 11:24:02;;;;;;;7.30;1.75;;;23.20;16.90;;;;;;5098496;28;20218;-76
2022/07/17 11:26:29;;;;;;;3.33;1.83;;;23.00;18.50;;;;;;5106998;28;20208;-77
2022/07/17 11:28:58;;;;;;;3.90;1.40;;;23.20;16.20;;;;;;5110235;28;20292;-76
2022/07/17 11:31:27;;;;;;;3.00;1.38;;;24.00;12.90;;;;;;5093549;28;20221;-76
2022/07/17 11:33:57;;;;;;;2.90;1.50;;;24.50;12.10;;;;;;5090301;28;20275;-76
2022/07/17 11:36:26;;;;;;;2.15;1.42;;;24.60;13.70;;;;;;5110171;28;20532;-75
2022/07/17 11:38:55;;;;;;;2.00;1.45;;;23.70;14.00;;;;;;5111370;28;20716;-76
2022/07/17 11:41:22;;;;;;;3.47;1.65;;;24.20;17.40;;;;;;5108980;28;20201;-76
2022/07/17 11:43:49;;;;;;;2.78;1.55;;;24.30;16.50;;;;;;5111041;28;20205;-75
2022/07/17 11:46:17;;;;;;;3.05;1.23;;;24.50;14.20;;;;;;5110930;28;20581;-75
2022/07/17 11:48:45;;;;;;;3.53;1.40;;;24.00;15.40;;;;;;5110127;28;20284;-76
2022/07/17 11:51:12;;;;;;;4.22;1.42;;;23.80;13.90;;;;;;5098597;28;20664;-78
2022/07/17 11:53:41;;;;;;;3.70;1.70;;;24.00;14.80;;;;;;5101674;28;20254;-76
2022/07/17 11:56:09;;;;;;;3.40;1.58;;;25.10;12.70;;;;;;5100983;28;20681;-76
2022/07/17 11:58:45;;;;;;;2.90;1.35;;;25.20;10.10;;;;;;5096833;28;20263;-76
2022/07/17 12:01:13;;;;;;;5.05;1.50;;;25.20;10.80;;;;;;5099209;28;20697;-76
2022/07/17 12:03:42;;;;;;;2.92;1.40;;;24.20;10.70;;;;;;5098946;28;20205;-76
2022/07/17 12:06:09;;;;;;;4.28;1.65;;;23.60;12.20;;;;;;5109463;28;20296;-76
2022/07/17 12:08:37;;;;;;;3.00;1.20;;;23.70;14.30;;;;;;5111715;28;20240;-76
2022/07/17 12:11:06;;;;;;;2.80;1.73;;;23.70;15.20;;;;;;5111551;28;20300;-75
2022/07/17 12:13:42;;;;;;;4.57;1.58;;;23.10;15.70;;;;;;5102164;28;20202;-75
2022/07/17 12:16:26;;;;;;;3.83;1.70;;;23.90;16.40;;;;;;5091333;28;20236;-75
2022/07/17 12:19:04;;;;;;;4.63;1.60;;;25.20;11.00;;;;;;5091978;28;20236;-76
2022/07/17 12:21:33;;;;;;;6.50;1.80;;;25.30;10.90;;;;;;5100112;28;20209;-77
2022/07/17 12:24:04;;;;;;;4.57;1.40;;;25.30;10.90;;;;;;5112671;28;20216;-77
2022/07/17 12:26:32;;;;;;;3.25;1.60;;;25.50;9.10;;;;;;5111077;28;20258;-77
2022/07/17 12:29:00;;;;;;;2.83;1.85;;;25.50;6.30;;;;;;5104845;28;20200;-77
2022/07/17 12:31:27;;;;;;;5.63;2.17;;;25.30;5.70;;;;;;5112239;28;20221;-78
2022/07/17 12:33:55;;;;;;;2.75;1.40;;;24.90;5.10;;;;;;5112925;28;20615;-77
2022/07/17 12:36:24;;;;;;;3.17;1.65;;;25.20;7.50;;;;;;5112888;28;20197;-78
2022/07/17 12:38:52;;;;;;;2.60;1.50;;;25.60;6.80;;;;;;5112681;28;20201;-73
2022/07/17 12:41:19;;;;;;;2.83;1.65;;;25.60;1.40;;;;;;5112671;28;20249;-77
2022/07/17 12:43:46;;;;;;;2.42;1.75;;;26.00;1.80;;;;;;5112603;28;20733;-77
2022/07/17 12:46:13;;;;;;;3.92;2.00;;;26.10;1.00;;;;;;5110883;28;20473;-75
2022/07/17 12:48:42;;;;;;;3.22;1.50;;;26.50;1.00;;;;;;5111003;28;20239;-79
2022/07/17 12:51:12;;;;;;;3.15;1.30;;;26.20;1.00;;;;;;5111758;28;20675;-79
2022/07/17 12:53:41;;;;;;;2.75;1.50;;;26.60;1.00;;;;;;5111625;28;20207;-78